Aviation Digital Data Service (ADDS)

Output produced by METARs form (1026 UTC 07 December 2022)
found at http://www.aviationweather.gov/metar/data/
 
LHSM 070945Z AUTO 00000KT 9999 OVC002 02/02 Q1016 BECMG SCT010 BKN040 BKN080
LHSM 070915Z AUTO VRB02KT 9999 BKN002 02/02 Q1016 BECMG SCT010 BKN040 BKN080
LHSM 070845Z AUTO VRB01KT 8000 BKN001 BKN037 BKN081 02/02 Q1016 BECMG 6000 NSW BKN005
LHSM 070815Z AUTO 30003KT 280V340 3700 BR BKN001 BKN082 01/01 Q1016 BECMG 6000 NSW BKN005
LHSM 070745Z AUTO VRB03KT 1600 BR VV002 01/01 Q1016 NOSIG
LHSM 070715Z AUTO VRB03KT 0550 FG VV002 01/01 Q1016 NOSIG
LHSM 070645Z AUTO 32003KT 0900 FG BKN001 00/00 Q1016 BECMG 1200 BR BCFG BKN002
LHSM 070615Z AUTO 33005KT 4900 BR BKN001 BKN018 01/01 Q1015 NOSIG
LHSM 070545Z AUTO 33005KT 8000 BKN002 BKN017 01/01 Q1015
LHSM 070515Z AUTO 00000KT 8000 BKN002 OVC019 01/01 Q1015
LHSM 070445Z AUTO 00000KT 4200 BR BKN002 BKN019 01/01 Q1015
TAF LHSM 070815Z 0709/0718 VRB03KT 0800 FG VV002 
     BECMG 0709/0712 7000 NSW BKN025 
     BECMG 0715/0718 4000 BR BKN010